sensor_id;sensor_type;location;lat;lon;timestamp;P1;durP1;ratioP1;P2;durP2;ratioP2
58992;SDS011;44782;0.000;0.000;2022-07-29T00:02:11;1.73;;;1.63;;
58992;SDS011;44782;0.000;0.000;2022-07-29T00:04:27;1.73;;;1.63;;
58992;SDS011;44782;0.000;0.000;2022-07-29T00:06:43;1.60;;;1.50;;
58992;SDS011;44782;0.000;0.000;2022-07-29T00:08:58;1.80;;;1.70;;
58992;SDS011;44782;0.000;0.000;2022-07-29T00:11:14;2.00;;;1.65;;
58992;SDS011;44782;0.000;0.000;2022-07-29T00:13:29;1.80;;;1.67;;
58992;SDS011;44782;0.000;0.000;2022-07-29T00:15:45;1.60;;;1.50;;
58992;SDS011;44782;0.000;0.000;2022-07-29T00:18:01;1.80;;;1.70;;
58992;SDS011;44782;0.000;0.000;2022-07-29T00:20:16;1.83;;;1.65;;
58992;SDS011;44782;0.000;0.000;2022-07-29T00:22:32;2.03;;;1.70;;
58992;SDS011;44782;0.000;0.000;2022-07-29T00:24:51;1.70;;;1.60;;
58992;SDS011;44782;0.000;0.000;2022-07-29T00:27:07;1.88;;;1.77;;
58992;SDS011;44782;0.000;0.000;2022-07-29T00:29:22;1.60;;;1.50;;
58992;SDS011;44782;0.000;0.000;2022-07-29T00:31:38;1.88;;;1.70;;
58992;SDS011;44782;0.000;0.000;2022-07-29T00:33:54;1.80;;;1.65;;
58992;SDS011;44782;0.000;0.000;2022-07-29T00:36:10;1.80;;;1.60;;
58992;SDS011;44782;0.000;0.000;2022-07-29T00:38:25;1.80;;;1.70;;
58992;SDS011;44782;0.000;0.000;2022-07-29T00:40:41;1.98;;;1.50;;
58992;SDS011;44782;0.000;0.000;2022-07-29T00:42:57;1.70;;;1.60;;
58992;SDS011;44782;0.000;0.000;2022-07-29T00:45:14;1.60;;;1.50;;
58992;SDS011;44782;0.000;0.000;2022-07-29T00:47:30;1.50;;;1.40;;
58992;SDS011;44782;0.000;0.000;2022-07-29T00:49:46;1.95;;;1.70;;
58992;SDS011;44782;0.000;0.000;2022-07-29T00:52:02;1.70;;;1.60;;
58992;SDS011;44782;0.000;0.000;2022-07-29T00:54:19;1.80;;;1.70;;
58992;SDS011;44782;0.000;0.000;2022-07-29T00:56:35;1.75;;;1.65;;
58992;SDS011;44782;0.000;0.000;2022-07-29T00:58:50;1.73;;;1.63;;
58992;SDS011;44782;0.000;0.000;2022-07-29T01:01:07;1.70;;;1.60;;
58992;SDS011;44782;0.000;0.000;2022-07-29T01:03:22;1.50;;;1.40;;
58992;SDS011;44782;0.000;0.000;2022-07-29T01:05:38;1.80;;;1.70;;
58992;SDS011;44782;0.000;0.000;2022-07-29T01:07:55;1.70;;;1.60;;
58992;SDS011;44782;0.000;0.000;2022-07-29T01:10:13;1.70;;;1.60;;
58992;SDS011;44782;0.000;0.000;2022-07-29T01:12:30;1.73;;;1.63;;
58992;SDS011;44782;0.000;0.000;2022-07-29T01:14:48;1.50;;;1.40;;
58992;SDS011;44782;0.000;0.000;2022-07-29T01:17:19;1.63;;;1.52;;
58992;SDS011;44782;0.000;0.000;2022-07-29T01:21:57;1.77;;;1.67;;
58992;SDS011;44782;0.000;0.000;2022-07-29T01:29:56;1.80;;;1.70;;
58992;SDS011;44782;0.000;0.000;2022-07-29T01:32:31;2.00;;;1.45;;
58992;SDS011;44782;0.000;0.000;2022-07-29T01:34:55;1.70;;;1.60;;
58992;SDS011;44782;0.000;0.000;2022-07-29T01:37:20;1.80;;;1.70;;
58992;SDS011;44782;0.000;0.000;2022-07-29T01:39:38;1.73;;;1.58;;
58992;SDS011;44782;0.000;0.000;2022-07-29T01:42:04;1.73;;;1.63;;
58992;SDS011;44782;0.000;0.000;2022-07-29T01:44:37;2.30;;;1.73;;
58992;SDS011;44782;0.000;0.000;2022-07-29T01:47:02;1.80;;;1.70;;
58992;SDS011;44782;0.000;0.000;2022-07-29T01:49:27;2.45;;;1.60;;
58992;SDS011;44782;0.000;0.000;2022-07-29T01:51:47;2.15;;;1.52;;
58992;SDS011;44782;0.000;0.000;2022-07-29T01:54:08;1.60;;;1.50;;
58992;SDS011;44782;0.000;0.000;2022-07-29T01:56:44;1.70;;;1.60;;
58992;SDS011;44782;0.000;0.000;2022-07-29T01:59:02;2.20;;;1.50;;
58992;SDS011;44782;0.000;0.000;2022-07-29T02:01:20;1.80;;;1.70;;
58992;SDS011;44782;0.000;0.000;2022-07-29T02:03:38;1.58;;;1.48;;
58992;SDS011;44782;0.000;0.000;2022-07-29T02:05:59;1.70;;;1.55;;
58992;SDS011;44782;0.000;0.000;2022-07-29T02:08:16;1.90;;;1.58;;
58992;SDS011;44782;0.000;0.000;2022-07-29T02:10:34;1.75;;;1.63;;
58992;SDS011;44782;0.000;0.000;2022-07-29T02:12:52;1.80;;;1.70;;
58992;SDS011;44782;0.000;0.000;2022-07-29T02:15:10;1.80;;;1.70;;
58992;SDS011;44782;0.000;0.000;2022-07-29T02:17:49;1.98;;;1.88;;
58992;SDS011;44782;0.000;0.000;2022-07-29T02:20:09;1.70;;;1.60;;
58992;SDS011;44782;0.000;0.000;2022-07-29T02:22:25;1.63;;;1.52;;
58992;SDS011;44782;0.000;0.000;2022-07-29T02:24:44;1.70;;;1.60;;
58992;SDS011;44782;0.000;0.000;2022-07-29T02:27:01;1.98;;;1.65;;
58992;SDS011;44782;0.000;0.000;2022-07-29T02:29:19;1.60;;;1.50;;
58992;SDS011;44782;0.000;0.000;2022-07-29T02:31:38;1.83;;;1.60;;
58992;SDS011;44782;0.000;0.000;2022-07-29T02:33:54;2.05;;;1.80;;
58992;SDS011;44782;0.000;0.000;2022-07-29T02:36:12;1.60;;;1.50;;
58992;SDS011;44782;0.000;0.000;2022-07-29T02:38:28;1.55;;;1.45;;
58992;SDS011;44782;0.000;0.000;2022-07-29T02:41:05;1.67;;;1.58;;
58992;SDS011;44782;0.000;0.000;2022-07-29T02:43:26;1.60;;;1.50;;
58992;SDS011;44782;0.000;0.000;2022-07-29T02:45:43;2.08;;;1.50;;
58992;SDS011;44782;0.000;0.000;2022-07-29T02:48:05;2.47;;;1.58;;
58992;SDS011;44782;0.000;0.000;2022-07-29T02:50:29;1.80;;;1.70;;
58992;SDS011;44782;0.000;0.000;2022-07-29T02:55:29;2.10;;;1.80;;
58992;SDS011;44782;0.000;0.000;2022-07-29T02:57:54;1.80;;;1.70;;
58992;SDS011;44782;0.000;0.000;2022-07-29T03:00:15;1.70;;;1.60;;
58992;SDS011;44782;0.000;0.000;2022-07-29T03:02:33;1.80;;;1.70;;
58992;SDS011;44782;0.000;0.000;2022-07-29T03:04:51;1.95;;;1.60;;
58992;SDS011;44782;0.000;0.000;2022-07-29T03:07:09;1.70;;;1.60;;
58992;SDS011;44782;0.000;0.000;2022-07-29T03:09:27;1.75;;;1.52;;
58992;SDS011;44782;0.000;0.000;2022-07-29T03:11:44;1.50;;;1.40;;
58992;SDS011;44782;0.000;0.000;2022-07-29T03:14:00;1.70;;;1.60;;
58992;SDS011;44782;0.000;0.000;2022-07-29T03:16:18;1.70;;;1.60;;
58992;SDS011;44782;0.000;0.000;2022-07-29T03:18:35;1.98;;;1.60;;
58992;SDS011;44782;0.000;0.000;2022-07-29T03:20:52;1.70;;;1.60;;
58992;SDS011;44782;0.000;0.000;2022-07-29T03:23:08;1.50;;;1.40;;
58992;SDS011;44782;0.000;0.000;2022-07-29T03:25:23;1.80;;;1.52;;
58992;SDS011;44782;0.000;0.000;2022-07-29T03:27:40;1.92;;;1.80;;
58992;SDS011;44782;0.000;0.000;2022-07-29T03:29:56;2.00;;;1.90;;
58992;SDS011;44782;0.000;0.000;2022-07-29T03:32:11;1.75;;;1.50;;
58992;SDS011;44782;0.000;0.000;2022-07-29T03:34:27;1.75;;;1.60;;
58992;SDS011;44782;0.000;0.000;2022-07-29T03:36:42;1.60;;;1.50;;
58992;SDS011;44782;0.000;0.000;2022-07-29T03:38:58;1.58;;;1.48;;
58992;SDS011;44782;0.000;0.000;2022-07-29T03:41:15;1.50;;;1.40;;
58992;SDS011;44782;0.000;0.000;2022-07-29T03:43:34;1.70;;;1.60;;
58992;SDS011;44782;0.000;0.000;2022-07-29T03:45:53;2.00;;;1.80;;
58992;SDS011;44782;0.000;0.000;2022-07-29T03:48:12;1.45;;;1.35;;
58992;SDS011;44782;0.000;0.000;2022-07-29T03:50:30;1.65;;;1.55;;
58992;SDS011;44782;0.000;0.000;2022-07-29T03:52:47;1.63;;;1.50;;
58992;SDS011;44782;0.000;0.000;2022-07-29T03:55:04;1.73;;;1.63;;
58992;SDS011;44782;0.000;0.000;2022-07-29T03:57:21;1.70;;;1.60;;
58992;SDS011;44782;0.000;0.000;2022-07-29T03:59:39;1.77;;;1.67;;
58992;SDS011;44782;0.000;0.000;2022-07-29T04:01:56;1.60;;;1.50;;
58992;SDS011;44782;0.000;0.000;2022-07-29T04:04:12;1.63;;;1.52;;
58992;SDS011;44782;0.000;0.000;2022-07-29T04:06:28;1.80;;;1.70;;
58992;SDS011;44782;0.000;0.000;2022-07-29T04:08:44;1.70;;;1.60;;
58992;SDS011;44782;0.000;0.000;2022-07-29T04:11:00;1.67;;;1.58;;
58992;SDS011;44782;0.000;0.000;2022-07-29T04:13:16;1.80;;;1.70;;
58992;SDS011;44782;0.000;0.000;2022-07-29T04:15:32;1.83;;;1.73;;
58992;SDS011;44782;0.000;0.000;2022-07-29T04:17:47;1.98;;;1.88;;
58992;SDS011;44782;0.000;0.000;2022-07-29T04:20:03;1.85;;;1.70;;
58992;SDS011;44782;0.000;0.000;2022-07-29T04:22:19;1.70;;;1.60;;
58992;SDS011;44782;0.000;0.000;2022-07-29T04:24:35;1.70;;;1.60;;
58992;SDS011;44782;0.000;0.000;2022-07-29T04:26:50;1.70;;;1.58;;
58992;SDS011;44782;0.000;0.000;2022-07-29T04:29:06;1.80;;;1.70;;
58992;SDS011;44782;0.000;0.000;2022-07-29T04:31:22;1.73;;;1.63;;
58992;SDS011;44782;0.000;0.000;2022-07-29T04:33:38;1.70;;;1.60;;
58992;SDS011;44782;0.000;0.000;2022-07-29T04:35:54;1.70;;;1.60;;
58992;SDS011;44782;0.000;0.000;2022-07-29T04:38:09;2.83;;;1.65;;
58992;SDS011;44782;0.000;0.000;2022-07-29T04:40:25;1.83;;;1.73;;
58992;SDS011;44782;0.000;0.000;2022-07-29T04:42:41;1.88;;;1.70;;
58992;SDS011;44782;0.000;0.000;2022-07-29T04:44:56;2.10;;;1.90;;
58992;SDS011;44782;0.000;0.000;2022-07-29T04:47:12;1.65;;;1.55;;
58992;SDS011;44782;0.000;0.000;2022-07-29T04:49:27;1.80;;;1.70;;
58992;SDS011;44782;0.000;0.000;2022-07-29T04:51:43;1.70;;;1.60;;
58992;SDS011;44782;0.000;0.000;2022-07-29T04:53:59;2.13;;;1.70;;
58992;SDS011;44782;0.000;0.000;2022-07-29T04:56:14;1.70;;;1.60;;
58992;SDS011;44782;0.000;0.000;2022-07-29T04:58:30;1.80;;;1.70;;
58992;SDS011;44782;0.000;0.000;2022-07-29T05:00:45;1.88;;;1.70;;
58992;SDS011;44782;0.000;0.000;2022-07-29T05:03:01;1.80;;;1.70;;
58992;SDS011;44782;0.000;0.000;2022-07-29T05:05:17;2.75;;;1.80;;
58992;SDS011;44782;0.000;0.000;2022-07-29T05:07:32;1.85;;;1.60;;
58992;SDS011;44782;0.000;0.000;2022-07-29T05:09:48;1.92;;;1.83;;
58992;SDS011;44782;0.000;0.000;2022-07-29T05:12:04;1.65;;;1.55;;
58992;SDS011;44782;0.000;0.000;2022-07-29T05:14:20;2.03;;;1.85;;
58992;SDS011;44782;0.000;0.000;2022-07-29T05:16:35;1.60;;;1.50;;
58992;SDS011;44782;0.000;0.000;2022-07-29T05:18:51;1.90;;;1.80;;
58992;SDS011;44782;0.000;0.000;2022-07-29T05:21:06;1.70;;;1.60;;
58992;SDS011;44782;0.000;0.000;2022-07-29T05:23:22;1.88;;;1.77;;
58992;SDS011;44782;0.000;0.000;2022-07-29T05:25:38;1.95;;;1.75;;
58992;SDS011;44782;0.000;0.000;2022-07-29T05:27:54;2.10;;;1.90;;
58992;SDS011;44782;0.000;0.000;2022-07-29T05:30:09;1.80;;;1.70;;
58992;SDS011;44782;0.000;0.000;2022-07-29T05:32:25;2.10;;;1.90;;
58992;SDS011;44782;0.000;0.000;2022-07-29T05:34:41;1.85;;;1.75;;
58992;SDS011;44782;0.000;0.000;2022-07-29T05:36:57;1.80;;;1.70;;
58992;SDS011;44782;0.000;0.000;2022-07-29T05:39:12;1.60;;;1.50;;
58992;SDS011;44782;0.000;0.000;2022-07-29T05:41:31;1.70;;;1.60;;
58992;SDS011;44782;0.000;0.000;2022-07-29T05:43:47;1.70;;;1.60;;
58992;SDS011;44782;0.000;0.000;2022-07-29T05:46:03;1.80;;;1.70;;
58992;SDS011;44782;0.000;0.000;2022-07-29T05:48:18;2.10;;;1.90;;
58992;SDS011;44782;0.000;0.000;2022-07-29T05:50:34;2.30;;;2.10;;
58992;SDS011;44782;0.000;0.000;2022-07-29T05:52:49;2.10;;;1.90;;
58992;SDS011;44782;0.000;0.000;2022-07-29T05:55:05;2.35;;;2.15;;
58992;SDS011;44782;0.000;0.000;2022-07-29T05:57:22;2.88;;;2.13;;
58992;SDS011;44782;0.000;0.000;2022-07-29T05:59:39;2.38;;;2.17;;
58992;SDS011;44782;0.000;0.000;2022-07-29T06:01:54;4.38;;;2.45;;
58992;SDS011;44782;0.000;0.000;2022-07-29T06:04:10;3.55;;;2.20;;
58992;SDS011;44782;0.000;0.000;2022-07-29T06:06:25;4.38;;;2.35;;
58992;SDS011;44782;0.000;0.000;2022-07-29T06:08:41;2.55;;;2.20;;
58992;SDS011;44782;0.000;0.000;2022-07-29T06:10:57;4.05;;;2.55;;
58992;SDS011;44782;0.000;0.000;2022-07-29T06:13:12;3.58;;;2.40;;
58992;SDS011;44782;0.000;0.000;2022-07-29T06:15:30;4.15;;;2.30;;
58992;SDS011;44782;0.000;0.000;2022-07-29T06:17:46;3.03;;;2.28;;
58992;SDS011;44782;0.000;0.000;2022-07-29T06:20:03;2.78;;;2.08;;
58992;SDS011;44782;0.000;0.000;2022-07-29T06:22:19;3.00;;;2.40;;
58992;SDS011;44782;0.000;0.000;2022-07-29T06:24:35;2.47;;;2.28;;
58992;SDS011;44782;0.000;0.000;2022-07-29T06:26:52;3.55;;;2.00;;
58992;SDS011;44782;0.000;0.000;2022-07-29T06:29:08;4.03;;;2.40;;
58992;SDS011;44782;0.000;0.000;2022-07-29T06:31:25;2.78;;;2.20;;
58992;SDS011;44782;0.000;0.000;2022-07-29T06:33:41;2.72;;;2.25;;
58992;SDS011;44782;0.000;0.000;2022-07-29T06:35:56;2.65;;;2.30;;
58992;SDS011;44782;0.000;0.000;2022-07-29T06:38:13;3.75;;;2.20;;
58992;SDS011;44782;0.000;0.000;2022-07-29T06:40:29;3.13;;;2.40;;
58992;SDS011;44782;0.000;0.000;2022-07-29T06:43:03;4.95;;;2.33;;
58992;SDS011;44782;0.000;0.000;2022-07-29T06:45:18;3.35;;;2.22;;
58992;SDS011;44782;0.000;0.000;2022-07-29T06:47:34;2.97;;;2.40;;
58992;SDS011;44782;0.000;0.000;2022-07-29T06:49:49;3.75;;;2.35;;
58992;SDS011;44782;0.000;0.000;2022-07-29T06:52:05;2.53;;;2.30;;
58992;SDS011;44782;0.000;0.000;2022-07-29T06:54:21;2.88;;;2.20;;
58992;SDS011;44782;0.000;0.000;2022-07-29T06:56:36;2.20;;;2.00;;
58992;SDS011;44782;0.000;0.000;2022-07-29T06:58:52;2.72;;;2.30;;
58992;SDS011;44782;0.000;0.000;2022-07-29T07:01:08;2.80;;;2.10;;
58992;SDS011;44782;0.000;0.000;2022-07-29T07:03:24;2.60;;;2.28;;
58992;SDS011;44782;0.000;0.000;2022-07-29T07:05:40;4.63;;;2.38;;
58992;SDS011;44782;0.000;0.000;2022-07-29T07:07:55;3.50;;;2.10;;
58992;SDS011;44782;0.000;0.000;2022-07-29T07:10:11;2.42;;;2.22;;
58992;SDS011;44782;0.000;0.000;2022-07-29T07:12:27;4.30;;;2.10;;
58992;SDS011;44782;0.000;0.000;2022-07-29T07:14:42;2.30;;;2.10;;
58992;SDS011;44782;0.000;0.000;2022-07-29T07:16:58;2.42;;;2.13;;
58992;SDS011;44782;0.000;0.000;2022-07-29T07:19:15;3.70;;;2.13;;
58992;SDS011;44782;0.000;0.000;2022-07-29T07:21:30;3.35;;;2.28;;
58992;SDS011;44782;0.000;0.000;2022-07-29T07:23:48;2.72;;;2.00;;
58992;SDS011;44782;0.000;0.000;2022-07-29T07:26:03;4.32;;;2.00;;
58992;SDS011;44782;0.000;0.000;2022-07-29T07:28:20;2.83;;;2.30;;
58992;SDS011;44782;0.000;0.000;2022-07-29T07:30:36;2.83;;;1.90;;
58992;SDS011;44782;0.000;0.000;2022-07-29T07:32:52;1.98;;;1.77;;
58992;SDS011;44782;0.000;0.000;2022-07-29T07:35:08;3.05;;;2.28;;
58992;SDS011;44782;0.000;0.000;2022-07-29T07:37:25;2.88;;;2.00;;
58992;SDS011;44782;0.000;0.000;2022-07-29T07:39:41;3.28;;;2.20;;
58992;SDS011;44782;0.000;0.000;2022-07-29T07:41:56;2.33;;;1.98;;
58992;SDS011;44782;0.000;0.000;2022-07-29T07:44:12;2.20;;;1.95;;
58992;SDS011;44782;0.000;0.000;2022-07-29T07:46:28;3.80;;;2.20;;
58992;SDS011;44782;0.000;0.000;2022-07-29T07:48:43;3.47;;;2.20;;
58992;SDS011;44782;0.000;0.000;2022-07-29T07:50:59;2.05;;;1.88;;
58992;SDS011;44782;0.000;0.000;2022-07-29T07:53:14;3.58;;;2.20;;
58992;SDS011;44782;0.000;0.000;2022-07-29T07:55:30;2.88;;;1.85;;
58992;SDS011;44782;0.000;0.000;2022-07-29T07:57:46;2.35;;;1.92;;
58992;SDS011;44782;0.000;0.000;2022-07-29T08:00:03;3.08;;;2.10;;
58992;SDS011;44782;0.000;0.000;2022-07-29T08:02:19;2.50;;;2.30;;
58992;SDS011;44782;0.000;0.000;2022-07-29T08:04:35;2.60;;;1.90;;
58992;SDS011;44782;0.000;0.000;2022-07-29T08:06:51;2.20;;;2.00;;
58992;SDS011;44782;0.000;0.000;2022-07-29T08:09:09;3.20;;;2.00;;
58992;SDS011;44782;0.000;0.000;2022-07-29T08:11:24;3.25;;;1.98;;
58992;SDS011;44782;0.000;0.000;2022-07-29T08:13:40;3.25;;;1.95;;
58992;SDS011;44782;0.000;0.000;2022-07-29T08:15:56;2.65;;;1.95;;
58992;SDS011;44782;0.000;0.000;2022-07-29T08:18:16;2.58;;;2.00;;
58992;SDS011;44782;0.000;0.000;2022-07-29T08:20:31;2.72;;;1.70;;
58992;SDS011;44782;0.000;0.000;2022-07-29T08:22:51;3.28;;;2.10;;
58992;SDS011;44782;0.000;0.000;2022-07-29T08:25:08;1.92;;;1.70;;
58992;SDS011;44782;0.000;0.000;2022-07-29T08:27:24;3.28;;;2.00;;
58992;SDS011;44782;0.000;0.000;2022-07-29T08:29:41;2.53;;;1.80;;
58992;SDS011;44782;0.000;0.000;2022-07-29T08:31:56;2.15;;;1.92;;
58992;SDS011;44782;0.000;0.000;2022-07-29T08:34:12;2.85;;;1.90;;
58992;SDS011;44782;0.000;0.000;2022-07-29T08:36:28;2.33;;;2.13;;
58992;SDS011;44782;0.000;0.000;2022-07-29T08:38:43;2.95;;;1.98;;
58992;SDS011;44782;0.000;0.000;2022-07-29T08:41:00;2.67;;;2.13;;
58992;SDS011;44782;0.000;0.000;2022-07-29T08:43:17;2.30;;;1.90;;
58992;SDS011;44782;0.000;0.000;2022-07-29T08:45:54;2.00;;;1.70;;
58992;SDS011;44782;0.000;0.000;2022-07-29T08:48:11;2.33;;;2.08;;
58992;SDS011;44782;0.000;0.000;2022-07-29T08:50:28;3.10;;;2.00;;
58992;SDS011;44782;0.000;0.000;2022-07-29T08:52:45;3.35;;;2.22;;
58992;SDS011;44782;0.000;0.000;2022-07-29T08:55:02;3.35;;;1.80;;
58992;SDS011;44782;0.000;0.000;2022-07-29T08:57:19;2.25;;;2.00;;
58992;SDS011;44782;0.000;0.000;2022-07-29T08:59:36;3.17;;;1.80;;
58992;SDS011;44782;0.000;0.000;2022-07-29T09:01:54;2.97;;;2.00;;
58992;SDS011;44782;0.000;0.000;2022-07-29T09:04:14;2.03;;;1.83;;
58992;SDS011;44782;0.000;0.000;2022-07-29T09:06:31;2.75;;;1.77;;
58992;SDS011;44782;0.000;0.000;2022-07-29T09:08:51;3.10;;;1.90;;
58992;SDS011;44782;0.000;0.000;2022-07-29T09:11:07;2.10;;;1.80;;
58992;SDS011;44782;0.000;0.000;2022-07-29T09:13:22;2.25;;;2.03;;
58992;SDS011;44782;0.000;0.000;2022-07-29T09:15:38;2.80;;;1.90;;
58992;SDS011;44782;0.000;0.000;2022-07-29T09:17:54;2.38;;;1.80;;
58992;SDS011;44782;0.000;0.000;2022-07-29T09:20:12;2.17;;;1.75;;
58992;SDS011;44782;0.000;0.000;2022-07-29T09:22:32;2.42;;;2.00;;
58992;SDS011;44782;0.000;0.000;2022-07-29T09:24:48;2.35;;;2.10;;
58992;SDS011;44782;0.000;0.000;2022-07-29T09:27:09;2.15;;;1.70;;
58992;SDS011;44782;0.000;0.000;2022-07-29T09:29:27;1.88;;;1.73;;
58992;SDS011;44782;0.000;0.000;2022-07-29T09:31:44;2.00;;;1.77;;
58992;SDS011;44782;0.000;0.000;2022-07-29T09:34:01;2.05;;;1.85;;
58992;SDS011;44782;0.000;0.000;2022-07-29T09:36:18;2.00;;;1.80;;
58992;SDS011;44782;0.000;0.000;2022-07-29T09:38:34;1.70;;;1.60;;
58992;SDS011;44782;0.000;0.000;2022-07-29T09:40:57;1.80;;;1.70;;
58992;SDS011;44782;0.000;0.000;2022-07-29T09:43:16;1.85;;;1.67;;
58992;SDS011;44782;0.000;0.000;2022-07-29T09:45:32;1.80;;;1.70;;
58992;SDS011;44782;0.000;0.000;2022-07-29T09:47:48;2.17;;;1.98;;
58992;SDS011;44782;0.000;0.000;2022-07-29T09:50:04;2.30;;;1.80;;
58992;SDS011;44782;0.000;0.000;2022-07-29T09:52:20;1.70;;;1.60;;
58992;SDS011;44782;0.000;0.000;2022-07-29T09:54:36;2.10;;;1.90;;
58992;SDS011;44782;0.000;0.000;2022-07-29T09:56:53;1.70;;;1.60;;
58992;SDS011;44782;0.000;0.000;2022-07-29T09:59:09;2.03;;;1.83;;
58992;SDS011;44782;0.000;0.000;2022-07-29T10:01:27;1.90;;;1.70;;
58992;SDS011;44782;0.000;0.000;2022-07-29T10:03:50;2.35;;;1.60;;
58992;SDS011;44782;0.000;0.000;2022-07-29T10:06:08;1.77;;;1.67;;
58992;SDS011;44782;0.000;0.000;2022-07-29T10:08:25;2.78;;;1.55;;
58992;SDS011;44782;0.000;0.000;2022-07-29T10:10:42;1.83;;;1.50;;
58992;SDS011;44782;0.000;0.000;2022-07-29T10:12:59;1.63;;;1.52;;
58992;SDS011;44782;0.000;0.000;2022-07-29T10:15:26;2.13;;;1.83;;
58992;SDS011;44782;0.000;0.000;2022-07-29T10:17:45;1.75;;;1.63;;
58992;SDS011;44782;0.000;0.000;2022-07-29T10:20:01;1.80;;;1.70;;
58992;SDS011;44782;0.000;0.000;2022-07-29T10:22:17;1.70;;;1.60;;
58992;SDS011;44782;0.000;0.000;2022-07-29T10:24:34;2.95;;;1.70;;
58992;SDS011;44782;0.000;0.000;2022-07-29T10:26:50;1.83;;;1.60;;
58992;SDS011;44782;0.000;0.000;2022-07-29T10:29:07;1.70;;;1.60;;
58992;SDS011;44782;0.000;0.000;2022-07-29T10:31:26;2.60;;;1.60;;
58992;SDS011;44782;0.000;0.000;2022-07-29T10:36:50;2.22;;;1.50;;
58992;SDS011;44782;0.000;0.000;2022-07-29T10:44:34;2.65;;;1.60;;
58992;SDS011;44782;0.000;0.000;2022-07-29T10:46:51;1.67;;;1.50;;
58992;SDS011;44782;0.000;0.000;2022-07-29T10:51:22;1.60;;;1.50;;
58992;SDS011;44782;0.000;0.000;2022-07-29T10:56:03;2.80;;;1.50;;
58992;SDS011;44782;0.000;0.000;2022-07-29T10:58:37;1.40;;;1.30;;
58992;SDS011;44782;0.000;0.000;2022-07-29T11:00:53;1.80;;;1.52;;
58992;SDS011;44782;0.000;0.000;2022-07-29T11:03:09;1.70;;;1.40;;
58992;SDS011;44782;0.000;0.000;2022-07-29T11:05:51;2.83;;;1.60;;
58992;SDS011;44782;0.000;0.000;2022-07-29T11:10:28;2.28;;;1.50;;
58992;SDS011;44782;0.000;0.000;2022-07-29T11:15:00;1.63;;;1.52;;
58992;SDS011;44782;0.000;0.000;2022-07-29T11:17:17;1.38;;;1.27;;
58992;SDS011;44782;0.000;0.000;2022-07-29T11:19:33;1.60;;;1.50;;
58992;SDS011;44782;0.000;0.000;2022-07-29T11:21:49;3.55;;;1.70;;
58992;SDS011;44782;0.000;0.000;2022-07-29T11:24:14;2.00;;;1.80;;
58992;SDS011;44782;0.000;0.000;2022-07-29T11:26:40;2.80;;;1.52;;
58992;SDS011;44782;0.000;0.000;2022-07-29T11:28:59;1.55;;;1.30;;
58992;SDS011;44782;0.000;0.000;2022-07-29T11:33:48;1.77;;;1.40;;
58992;SDS011;44782;0.000;0.000;2022-07-29T11:36:07;2.42;;;1.65;;
58992;SDS011;44782;0.000;0.000;2022-07-29T11:38:27;3.05;;;1.70;;
58992;SDS011;44782;0.000;0.000;2022-07-29T11:40:48;1.75;;;1.58;;
58992;SDS011;44782;0.000;0.000;2022-07-29T11:43:45;1.52;;;1.40;;
58992;SDS011;44782;0.000;0.000;2022-07-29T11:46:18;1.92;;;1.50;;
58992;SDS011;44782;0.000;0.000;2022-07-29T11:48:58;3.30;;;1.50;;
58992;SDS011;44782;0.000;0.000;2022-07-29T11:51:15;3.67;;;1.85;;
58992;SDS011;44782;0.000;0.000;2022-07-29T11:53:31;2.00;;;1.73;;
58992;SDS011;44782;0.000;0.000;2022-07-29T11:55:48;1.60;;;1.50;;
58992;SDS011;44782;0.000;0.000;2022-07-29T11:58:10;1.60;;;1.50;;
58992;SDS011;44782;0.000;0.000;2022-07-29T12:00:37;1.75;;;1.65;;
58992;SDS011;44782;0.000;0.000;2022-07-29T12:02:54;1.95;;;1.60;;
58992;SDS011;44782;0.000;0.000;2022-07-29T12:05:11;1.63;;;1.50;;
58992;SDS011;44782;0.000;0.000;2022-07-29T12:07:30;2.40;;;1.52;;
58992;SDS011;44782;0.000;0.000;2022-07-29T12:09:50;2.38;;;1.52;;
58992;SDS011;44782;0.000;0.000;2022-07-29T12:12:07;2.50;;;1.65;;
58992;SDS011;44782;0.000;0.000;2022-07-29T12:14:27;2.25;;;1.70;;
58992;SDS011;44782;0.000;0.000;2022-07-29T12:16:43;1.52;;;1.42;;
58992;SDS011;44782;0.000;0.000;2022-07-29T12:18:59;1.50;;;1.40;;
58992;SDS011;44782;0.000;0.000;2022-07-29T12:21:17;1.77;;;1.58;;
58992;SDS011;44782;0.000;0.000;2022-07-29T12:23:33;1.98;;;1.70;;
58992;SDS011;44782;0.000;0.000;2022-07-29T12:25:49;1.60;;;1.50;;
58992;SDS011;44782;0.000;0.000;2022-07-29T12:28:05;1.98;;;1.77;;
58992;SDS011;44782;0.000;0.000;2022-07-29T12:30:23;2.00;;;1.38;;
58992;SDS011;44782;0.000;0.000;2022-07-29T12:32:48;1.40;;;1.30;;
58992;SDS011;44782;0.000;0.000;2022-07-29T12:35:04;1.60;;;1.50;;
58992;SDS011;44782;0.000;0.000;2022-07-29T12:37:22;3.10;;;1.50;;
58992;SDS011;44782;0.000;0.000;2022-07-29T12:39:38;2.00;;;1.60;;
58992;SDS011;44782;0.000;0.000;2022-07-29T12:41:54;1.60;;;1.50;;
58992;SDS011;44782;0.000;0.000;2022-07-29T12:44:10;1.55;;;1.45;;
58992;SDS011;44782;0.000;0.000;2022-07-29T12:46:26;2.17;;;1.40;;
58992;SDS011;44782;0.000;0.000;2022-07-29T12:48:42;1.75;;;1.52;;
58992;SDS011;44782;0.000;0.000;2022-07-29T12:50:59;1.55;;;1.35;;
58992;SDS011;44782;0.000;0.000;2022-07-29T12:53:16;1.70;;;1.60;;
58992;SDS011;44782;0.000;0.000;2022-07-29T12:55:42;2.03;;;1.60;;
58992;SDS011;44782;0.000;0.000;2022-07-29T12:58:06;2.40;;;1.50;;
58992;SDS011;44782;0.000;0.000;2022-07-29T13:00:22;1.90;;;1.70;;
58992;SDS011;44782;0.000;0.000;2022-07-29T13:02:40;1.55;;;1.45;;
58992;SDS011;44782;0.000;0.000;2022-07-29T13:04:58;2.28;;;1.52;;
58992;SDS011;44782;0.000;0.000;2022-07-29T13:07:14;1.63;;;1.52;;
58992;SDS011;44782;0.000;0.000;2022-07-29T13:09:43;1.40;;;1.30;;
58992;SDS011;44782;0.000;0.000;2022-07-29T13:12:05;1.35;;;1.25;;
58992;SDS011;44782;0.000;0.000;2022-07-29T13:14:32;1.67;;;1.50;;
58992;SDS011;44782;0.000;0.000;2022-07-29T13:22:05;1.90;;;1.63;;
58992;SDS011;44782;0.000;0.000;2022-07-29T13:24:22;1.58;;;1.48;;
58992;SDS011;44782;0.000;0.000;2022-07-29T13:26:39;1.65;;;1.40;;
58992;SDS011;44782;0.000;0.000;2022-07-29T13:28:56;1.55;;;1.40;;
58992;SDS011;44782;0.000;0.000;2022-07-29T13:31:12;1.58;;;1.48;;
58992;SDS011;44782;0.000;0.000;2022-07-29T13:33:27;1.90;;;1.60;;
58992;SDS011;44782;0.000;0.000;2022-07-29T13:35:43;1.73;;;1.60;;
58992;SDS011;44782;0.000;0.000;2022-07-29T13:37:59;1.58;;;1.48;;
58992;SDS011;44782;0.000;0.000;2022-07-29T13:40:15;1.50;;;1.40;;
58992;SDS011;44782;0.000;0.000;2022-07-29T13:42:33;1.50;;;1.40;;
58992;SDS011;44782;0.000;0.000;2022-07-29T13:44:49;1.60;;;1.50;;
58992;SDS011;44782;0.000;0.000;2022-07-29T13:47:07;1.58;;;1.40;;
58992;SDS011;44782;0.000;0.000;2022-07-29T13:49:23;1.45;;;1.35;;
58992;SDS011;44782;0.000;0.000;2022-07-29T13:51:39;1.55;;;1.40;;
58992;SDS011;44782;0.000;0.000;2022-07-29T13:53:54;1.88;;;1.40;;
58992;SDS011;44782;0.000;0.000;2022-07-29T13:56:10;1.42;;;1.33;;
58992;SDS011;44782;0.000;0.000;2022-07-29T13:58:25;1.67;;;1.30;;
58992;SDS011;44782;0.000;0.000;2022-07-29T14:00:41;1.60;;;1.50;;
58992;SDS011;44782;0.000;0.000;2022-07-29T14:02:57;1.45;;;1.30;;
58992;SDS011;44782;0.000;0.000;2022-07-29T14:05:13;1.70;;;1.60;;
58992;SDS011;44782;0.000;0.000;2022-07-29T14:07:29;2.45;;;1.63;;
58992;SDS011;44782;0.000;0.000;2022-07-29T14:09:44;1.60;;;1.50;;
58992;SDS011;44782;0.000;0.000;2022-07-29T14:12:00;1.65;;;1.55;;
58992;SDS011;44782;0.000;0.000;2022-07-29T14:14:17;2.00;;;1.45;;
58992;SDS011;44782;0.000;0.000;2022-07-29T14:16:33;1.63;;;1.52;;
58992;SDS011;44782;0.000;0.000;2022-07-29T14:18:49;1.63;;;1.50;;
58992;SDS011;44782;0.000;0.000;2022-07-29T14:21:04;1.60;;;1.50;;
58992;SDS011;44782;0.000;0.000;2022-07-29T14:23:20;1.50;;;1.40;;
58992;SDS011;44782;0.000;0.000;2022-07-29T14:25:36;1.70;;;1.45;;
58992;SDS011;44782;0.000;0.000;2022-07-29T14:27:51;1.55;;;1.45;;
58992;SDS011;44782;0.000;0.000;2022-07-29T14:30:08;1.73;;;1.50;;
58992;SDS011;44782;0.000;0.000;2022-07-29T14:32:24;1.50;;;1.40;;
58992;SDS011;44782;0.000;0.000;2022-07-29T14:34:40;1.50;;;1.30;;
58992;SDS011;44782;0.000;0.000;2022-07-29T14:36:56;1.50;;;1.40;;
58992;SDS011;44782;0.000;0.000;2022-07-29T14:39:11;1.60;;;1.50;;